createdAt,value
2023-04-29T00:00:51.454Z,12.07
2023-04-29T00:03:54.074Z,12.80
2023-04-29T00:06:56.268Z,12.27
2023-04-29T00:09:58.312Z,12.63
2023-04-29T00:12:59.964Z,13.77
2023-04-29T00:16:01.783Z,13.87
2023-04-29T00:19:03.523Z,13.17
2023-04-29T00:22:05.173Z,14.47
2023-04-29T00:25:07.569Z,13.30
2023-04-29T00:28:09.306Z,12.97
2023-04-29T00:31:11.086Z,13.13
2023-04-29T00:34:12.732Z,12.80
2023-04-29T00:37:14.378Z,11.00
2023-04-29T00:40:16.402Z,10.70
2023-04-29T00:43:18.085Z,11.10
2023-04-29T00:46:19.853Z,11.40
2023-04-29T00:49:21.660Z,12.47
2023-04-29T00:52:23.509Z,12.63
2023-04-29T00:55:26.447Z,15.43
2023-04-29T00:58:33.479Z,16.30
2023-04-29T01:01:36.426Z,15.63
2023-04-29T01:04:38.363Z,16.53
2023-04-29T01:07:58.818Z,16.47
2023-04-29T01:11:12.839Z,15.93
2023-04-29T01:14:14.569Z,16.60
2023-04-29T01:17:23.616Z,16.33
2023-04-29T01:20:26.256Z,16.03
2023-04-29T01:23:28.990Z,15.67
2023-04-29T01:26:33.067Z,14.80
2023-04-29T01:29:52.063Z,15.40
2023-04-29T01:33:15.041Z,15.13
2023-04-29T01:36:27.763Z,14.67
2023-04-29T01:39:44.725Z,15.40
2023-04-29T01:42:55.796Z,14.03
2023-04-29T01:45:58.220Z,15.13
2023-04-29T01:49:12.547Z,14.77
2023-04-29T01:52:14.203Z,14.17
2023-04-29T01:55:15.982Z,15.07
2023-04-29T01:58:17.626Z,14.17
2023-04-29T02:01:19.371Z,14.53
2023-04-29T02:04:21.216Z,15.00
2023-04-29T02:07:23.340Z,15.07
2023-04-29T02:10:24.988Z,14.90
2023-04-29T02:13:27.134Z,14.80
2023-04-29T02:16:28.900Z,15.47
2023-04-29T02:19:30.836Z,15.20
2023-04-29T02:22:32.500Z,15.73
2023-04-29T02:25:34.223Z,15.13
2023-04-29T02:28:35.980Z,14.83
2023-04-29T02:31:38.187Z,16.23
2023-04-29T02:34:39.884Z,15.27
2023-04-29T02:37:41.520Z,14.73
2023-04-29T02:40:44.233Z,14.97
2023-04-29T02:43:46.494Z,15.57
2023-04-29T02:46:48.177Z,15.37
2023-04-29T02:49:50.075Z,15.10
2023-04-29T02:52:51.890Z,15.00
2023-04-29T02:55:53.596Z,15.57
2023-04-29T02:58:55.327Z,17.13
2023-04-29T03:01:57.073Z,17.33
2023-04-29T03:04:58.738Z,17.47
2023-04-29T03:08:00.401Z,16.27
2023-04-29T03:11:02.174Z,17.00
2023-04-29T03:14:04.098Z,16.20
2023-04-29T03:17:05.800Z,16.33
2023-04-29T03:20:08.235Z,15.87
2023-04-29T03:23:09.961Z,16.03
2023-04-29T03:26:12.065Z,15.27
2023-04-29T03:29:13.892Z,15.60
2023-04-29T03:32:15.642Z,15.20
2023-04-29T03:35:17.313Z,13.00
2023-04-29T03:38:18.978Z,12.57
2023-04-29T03:41:20.693Z,12.13
2023-04-29T03:44:22.401Z,10.57
2023-04-29T03:47:24.232Z,11.37
2023-04-29T03:50:26.164Z,11.37
2023-04-29T03:53:27.883Z,10.80
2023-04-29T03:56:29.602Z,10.83
2023-04-29T03:59:31.541Z,11.27
2023-04-29T04:02:33.354Z,10.17
2023-04-29T04:05:35.244Z,9.90
2023-04-29T04:08:37.023Z,9.70
2023-04-29T04:11:38.668Z,9.07
2023-04-29T04:14:40.321Z,9.33
2023-04-29T04:17:42.035Z,8.47
2023-04-29T04:20:43.692Z,8.17
2023-04-29T04:23:45.533Z,8.10
2023-04-29T04:26:47.291Z,8.23
2023-04-29T04:29:49.040Z,8.00
2023-04-29T04:32:50.713Z,8.83
2023-04-29T04:35:52.553Z,8.77
2023-04-29T04:38:54.242Z,9.53
2023-04-29T04:41:55.948Z,8.97
2023-04-29T04:44:57.627Z,10.63
2023-04-29T04:47:59.320Z,9.93
2023-04-29T04:51:08.274Z,10.43
2023-04-29T04:54:10.027Z,10.50
2023-04-29T04:57:11.961Z,11.80
2023-04-29T05:00:14.141Z,10.67
2023-04-29T05:03:16.151Z,10.70
2023-04-29T05:06:18.096Z,11.93
2023-04-29T05:09:19.733Z,11.33
2023-04-29T05:12:21.445Z,13.33
2023-04-29T05:15:23.089Z,13.17
2023-04-29T05:18:24.800Z,13.17
2023-04-29T05:21:26.421Z,12.17
2023-04-29T05:24:29.716Z,12.93
2023-04-29T05:27:31.344Z,13.90
2023-04-29T05:30:33.045Z,13.33
2023-04-29T05:33:34.709Z,13.73
2023-04-29T05:36:36.605Z,14.23
2023-04-29T05:39:38.265Z,14.70
2023-04-29T05:42:39.940Z,16.33
2023-04-29T05:45:41.594Z,14.63
2023-04-29T05:48:43.465Z,14.57
2023-04-29T05:51:45.368Z,14.57
2023-04-29T05:54:47.014Z,16.03
2023-04-29T05:57:48.687Z,14.53
2023-04-29T06:00:50.466Z,14.17
2023-04-29T06:03:52.200Z,13.30
2023-04-29T06:06:56.918Z,14.63
2023-04-29T06:09:58.684Z,12.00
2023-04-29T06:13:00.333Z,12.63
2023-04-29T06:16:02.419Z,12.80
2023-04-29T06:19:04.296Z,14.23
2023-04-29T06:22:05.927Z,12.23
2023-04-29T06:25:07.974Z,12.00
2023-04-29T06:28:09.757Z,11.33
2023-04-29T06:31:42.447Z,10.63
2023-04-29T06:39:06.388Z,11.00
2023-04-29T06:42:08.198Z,11.53
2023-04-29T06:45:10.495Z,10.27
2023-04-29T06:48:12.527Z,10.80
2023-04-29T06:51:14.262Z,10.87
2023-04-29T06:54:16.055Z,11.20
2023-04-29T06:57:18.448Z,12.43
2023-04-29T07:00:21.146Z,12.57
2023-04-29T07:03:22.881Z,12.63
2023-04-29T07:06:24.582Z,13.80
2023-04-29T07:09:29.461Z,14.33
2023-04-29T07:12:31.103Z,14.13
2023-04-29T07:15:36.629Z,14.70
2023-04-29T07:18:38.266Z,14.77
2023-04-29T07:21:39.988Z,14.63
2023-04-29T07:24:41.687Z,14.60
2023-04-29T07:27:43.340Z,15.13
2023-04-29T07:30:45.173Z,16.57
2023-04-29T07:33:47.477Z,16.00
2023-04-29T07:36:49.116Z,16.20
2023-04-29T07:39:51.246Z,16.90
2023-04-29T07:42:52.969Z,18.43
2023-04-29T07:45:54.656Z,16.90
2023-04-29T07:48:56.427Z,19.23
2023-04-29T07:51:58.352Z,19.53
2023-04-29T07:54:59.997Z,20.13
2023-04-29T07:58:01.759Z,19.80
2023-04-29T08:01:11.904Z,19.37
2023-04-29T08:04:13.975Z,19.20
2023-04-29T08:07:15.967Z,19.83
2023-04-29T08:10:18.893Z,20.07
2023-04-29T08:13:20.662Z,20.57
2023-04-29T08:16:22.380Z,20.43
2023-04-29T08:19:24.176Z,21.63
2023-04-29T08:22:25.818Z,21.97
2023-04-29T08:25:27.626Z,22.37
2023-04-29T08:28:29.606Z,22.30
2023-04-29T08:31:31.902Z,24.80
2023-04-29T08:34:36.095Z,23.50
2023-04-29T08:37:37.903Z,23.73
2023-04-29T08:40:45.790Z,23.43
2023-04-29T08:43:47.984Z,23.77
2023-04-29T08:46:50.922Z,23.57
2023-04-29T08:49:53.982Z,23.87
2023-04-29T08:52:56.157Z,23.30
2023-04-29T08:56:03.644Z,23.83
2023-04-29T08:59:08.220Z,23.87
2023-04-29T09:02:17.166Z,24.00
2023-04-29T09:05:18.931Z,23.43
2023-04-29T09:08:23.919Z,21.37
2023-04-29T09:11:27.819Z,21.20
2023-04-29T09:14:34.206Z,22.70
2023-04-29T09:17:47.023Z,22.47
2023-04-29T09:20:48.730Z,21.70
2023-04-29T09:23:52.932Z,22.17
2023-04-29T09:26:55.302Z,23.73
2023-04-29T09:30:06.229Z,22.73
2023-04-29T09:33:09.604Z,22.40
2023-04-29T09:36:11.366Z,22.43
2023-04-29T09:39:20.709Z,20.30
2023-04-29T09:42:22.456Z,20.87
2023-04-29T09:45:38.357Z,20.33
2023-04-29T09:48:40.036Z,20.47
2023-04-29T09:51:53.120Z,20.00
2023-04-29T09:55:05.762Z,16.90
2023-04-29T09:58:07.421Z,17.60
2023-04-29T10:01:10.449Z,17.73
2023-04-29T10:04:15.818Z,16.00
2023-04-29T10:07:18.193Z,16.50
2023-04-29T10:10:23.011Z,15.57
2023-04-29T10:13:28.788Z,14.67
2023-04-29T10:16:34.491Z,14.67
2023-04-29T10:19:46.403Z,15.27
2023-04-29T10:22:59.913Z,13.43
2023-04-29T10:26:06.205Z,12.70
2023-04-29T10:29:13.225Z,11.93
2023-04-29T10:32:19.279Z,11.63
2023-04-29T10:35:25.948Z,11.30
2023-04-29T10:38:41.919Z,11.57
2023-04-29T10:41:49.305Z,12.13
2023-04-29T10:45:22.424Z,11.70
2023-04-29T10:48:30.496Z,12.43
2023-04-29T10:51:34.447Z,11.60
2023-04-29T10:54:36.102Z,10.83
2023-04-29T10:57:37.838Z,11.03
2023-04-29T11:00:40.337Z,10.90
2023-04-29T11:03:46.138Z,11.27
2023-04-29T11:06:52.964Z,12.07
2023-04-29T11:09:55.093Z,11.03
2023-04-29T11:13:22.851Z,11.33
2023-04-29T11:16:29.520Z,11.63
2023-04-29T11:19:33.605Z,10.80
2023-04-29T11:22:35.358Z,11.57
2023-04-29T11:25:39.496Z,11.10
2023-04-29T11:28:43.367Z,11.07
2023-04-29T11:31:45.098Z,12.77
2023-04-29T11:34:46.865Z,11.47
2023-04-29T11:37:48.598Z,11.10
2023-04-29T11:40:50.693Z,12.37
2023-04-29T11:43:59.848Z,11.10
2023-04-29T11:47:11.229Z,11.17
2023-04-29T11:50:16.637Z,11.10
2023-04-29T11:53:24.732Z,11.77
2023-04-29T11:56:26.457Z,10.30
2023-04-29T11:59:29.365Z,10.13
2023-04-29T12:02:32.248Z,9.30
2023-04-29T12:05:34.011Z,9.67
2023-04-29T12:08:35.771Z,8.60
2023-04-29T12:11:37.937Z,9.47
2023-04-29T12:14:41.300Z,8.40
2023-04-29T12:17:44.180Z,8.70
2023-04-29T12:20:48.112Z,8.10
2023-04-29T12:23:51.565Z,7.87
2023-04-29T12:26:54.925Z,8.50
2023-04-29T12:29:57.479Z,8.20
2023-04-29T12:32:59.430Z,9.23
2023-04-29T12:36:02.013Z,9.53
2023-04-29T12:39:08.329Z,9.23
2023-04-29T12:42:16.988Z,10.40
2023-04-29T12:45:32.655Z,10.37
2023-04-29T12:48:38.651Z,10.00
2023-04-29T12:51:40.912Z,9.60
2023-04-29T12:54:43.805Z,9.43
2023-04-29T12:57:46.112Z,9.37
2023-04-29T13:00:47.761Z,7.83
2023-04-29T13:03:51.569Z,7.53
2023-04-29T13:06:59.975Z,7.33
2023-04-29T13:10:02.339Z,7.63
2023-04-29T13:13:04.045Z,8.27
2023-04-29T13:16:06.296Z,8.67
2023-04-29T13:19:24.613Z,8.57
2023-04-29T13:22:29.595Z,8.80
2023-04-29T13:25:31.229Z,8.20
2023-04-29T13:28:32.975Z,8.33
2023-04-29T13:31:34.678Z,8.23
2023-04-29T13:34:36.681Z,8.97
2023-04-29T13:37:38.413Z,9.27
2023-04-29T13:40:45.979Z,8.67
2023-04-29T13:43:50.778Z,8.30
2023-04-29T13:46:52.945Z,9.80
2023-04-29T13:50:32.882Z,9.80
2023-04-29T13:53:51.179Z,11.10
2023-04-29T13:57:30.221Z,10.80
2023-04-29T14:00:14.554Z,11.03
2023-04-29T14:04:00.767Z,10.87
2023-04-29T14:07:02.812Z,11.60
2023-04-29T14:10:04.822Z,11.63
2023-04-29T14:13:07.289Z,11.77
2023-04-29T14:16:09.449Z,11.67
2023-04-29T14:19:11.661Z,12.37
2023-04-29T14:22:13.372Z,12.40
2023-04-29T14:25:15.144Z,12.37
2023-04-29T14:28:16.921Z,13.50
2023-04-29T14:31:18.618Z,13.73
2023-04-29T14:34:20.830Z,14.47
2023-04-29T14:37:22.590Z,14.57
2023-04-29T14:40:24.249Z,15.30
2023-04-29T14:43:26.369Z,14.33
2023-04-29T14:46:28.957Z,14.30
2023-04-29T14:49:31.746Z,14.53
2023-04-29T14:52:33.585Z,15.23
2023-04-29T14:55:35.292Z,14.83
2023-04-29T14:58:36.947Z,15.60
2023-04-29T15:01:39.741Z,15.07
2023-04-29T15:04:46.120Z,15.63
2023-04-29T15:07:47.868Z,15.53
2023-04-29T15:10:49.879Z,13.77
2023-04-29T15:13:51.836Z,14.87
2023-04-29T15:16:53.558Z,14.37
2023-04-29T15:19:55.312Z,14.53
2023-04-29T15:22:56.952Z,14.23
2023-04-29T15:25:58.813Z,14.37
2023-04-29T15:29:00.812Z,14.70
2023-04-29T15:32:02.697Z,14.57
2023-04-29T15:35:06.593Z,14.13
2023-04-29T15:38:08.314Z,15.50
2023-04-29T15:41:09.978Z,15.47
2023-04-29T15:44:11.717Z,15.40
2023-04-29T15:47:13.562Z,16.50
2023-04-29T15:50:15.466Z,16.93
2023-04-29T15:53:17.141Z,17.80
2023-04-29T15:56:18.856Z,17.73
2023-04-29T15:59:20.510Z,17.33
2023-04-29T16:02:22.279Z,16.20
2023-04-29T16:05:23.958Z,16.67
2023-04-29T16:08:26.069Z,16.03
2023-04-29T16:11:27.713Z,15.80
2023-04-29T16:14:30.137Z,15.07
2023-04-29T16:17:32.479Z,15.37
2023-04-29T16:20:34.267Z,15.30
2023-04-29T16:23:35.945Z,14.63
2023-04-29T16:26:38.574Z,14.43
2023-04-29T16:29:40.310Z,13.37
2023-04-29T16:32:42.972Z,12.90
2023-04-29T16:35:44.710Z,12.73
2023-04-29T16:38:46.377Z,11.90
2023-04-29T16:41:48.029Z,11.60
2023-04-29T16:44:49.918Z,11.50
2023-04-29T16:47:52.091Z,12.60
2023-04-29T16:50:53.779Z,10.90
2023-04-29T16:53:55.571Z,10.60
2023-04-29T16:56:57.316Z,12.03
2023-04-29T16:59:59.062Z,10.07
2023-04-29T17:03:00.979Z,11.03
2023-04-29T17:06:03.152Z,11.30
2023-04-29T17:09:05.723Z,11.50
2023-04-29T17:12:08.032Z,11.60
2023-04-29T17:15:10.151Z,11.03
2023-04-29T17:18:12.324Z,12.73
2023-04-29T17:21:14.003Z,12.17
2023-04-29T17:24:16.953Z,12.30
2023-04-29T17:27:18.722Z,12.07
2023-04-29T17:30:20.420Z,11.87
2023-04-29T17:33:22.558Z,11.63
2023-04-29T17:36:24.231Z,11.83
2023-04-29T17:39:25.959Z,11.90
2023-04-29T17:42:27.676Z,10.87
2023-04-29T17:45:29.472Z,11.93
2023-04-29T17:48:32.295Z,15.17
2023-04-29T17:51:34.334Z,11.57
2023-04-29T17:54:39.498Z,12.07
2023-04-29T17:57:41.879Z,10.90
2023-04-29T18:00:45.081Z,11.50
2023-04-29T18:03:47.131Z,11.33
2023-04-29T18:06:49.032Z,11.87
2023-04-29T18:09:51.082Z,12.70
2023-04-29T18:12:52.795Z,11.47
2023-04-29T18:15:55.325Z,11.07
2023-04-29T18:18:57.251Z,10.97
2023-04-29T18:22:01.254Z,10.13
2023-04-29T18:25:03.045Z,10.10
2023-04-29T18:31:19.047Z,9.60
2023-04-29T18:34:20.743Z,10.00
2023-04-29T18:37:23.218Z,9.63
2023-04-29T18:40:25.035Z,9.47
2023-04-29T18:43:28.454Z,9.17
2023-04-29T18:46:30.529Z,9.67
2023-04-29T18:49:32.401Z,10.73
2023-04-29T18:52:34.400Z,10.43
2023-04-29T18:55:36.175Z,9.77
2023-04-29T18:58:37.814Z,10.50
2023-04-29T19:01:39.623Z,10.40
2023-04-29T19:04:41.415Z,10.17
2023-04-29T19:07:43.316Z,10.37
2023-04-29T19:10:45.308Z,9.93
2023-04-29T19:13:47.039Z,10.47
2023-04-29T19:16:50.214Z,10.60
2023-04-29T19:19:58.887Z,10.40
2023-04-29T19:23:00.763Z,11.87
2023-04-29T19:26:11.346Z,10.87
2023-04-29T19:29:13.002Z,10.33
2023-04-29T19:32:51.958Z,10.13
2023-04-29T19:36:26.570Z,10.43
2023-04-29T19:39:33.737Z,10.07
2023-04-29T19:42:35.433Z,10.70
2023-04-29T19:45:37.217Z,10.23
2023-04-29T19:48:39.569Z,9.87
2023-04-29T19:51:41.390Z,9.63
2023-04-29T19:54:43.052Z,9.70
2023-04-29T19:57:44.729Z,10.27
2023-04-29T20:00:46.448Z,9.07
2023-04-29T20:03:48.371Z,9.97
2023-04-29T20:06:50.322Z,9.70
2023-04-29T20:09:53.031Z,9.30
2023-04-29T20:12:55.179Z,9.27
2023-04-29T20:15:57.077Z,9.07
2023-04-29T20:18:58.799Z,7.90
2023-04-29T20:22:01.305Z,8.33
2023-04-29T20:25:03.833Z,8.13
2023-04-29T20:28:05.602Z,7.97
2023-04-29T20:31:08.497Z,7.33
2023-04-29T20:34:11.055Z,7.37
2023-04-29T20:37:12.858Z,7.13
2023-04-29T20:40:14.578Z,6.47
2023-04-29T20:43:16.260Z,6.33
2023-04-29T20:46:18.008Z,6.70
2023-04-29T20:49:19.931Z,6.17
2023-04-29T20:52:21.571Z,6.70
2023-04-29T20:55:23.400Z,5.70
2023-04-29T20:58:25.062Z,5.10
2023-04-29T21:01:40.048Z,5.60
2023-04-29T21:04:42.190Z,4.97
2023-04-29T21:07:43.868Z,5.50
2023-04-29T21:10:45.547Z,5.33
2023-04-29T21:13:50.155Z,4.83
2023-04-29T21:16:52.236Z,4.80
2023-04-29T21:19:54.202Z,5.63
2023-04-29T21:22:56.191Z,5.17
2023-04-29T21:25:57.820Z,5.97
2023-04-29T21:28:59.535Z,5.00
2023-04-29T21:32:47.016Z,5.43
2023-04-29T21:35:51.204Z,5.43
2023-04-29T21:38:54.316Z,5.17
2023-04-29T21:41:56.328Z,5.33
2023-04-29T21:45:02.981Z,5.00
2023-04-29T21:48:14.687Z,5.23
2023-04-29T21:51:18.933Z,5.00
2023-04-29T21:54:20.664Z,5.63
2023-04-29T21:57:32.058Z,5.60
2023-04-29T22:00:57.874Z,5.27
2023-04-29T22:03:59.738Z,5.13
2023-04-29T22:07:01.369Z,5.70
2023-04-29T22:10:03.115Z,5.53
2023-04-29T22:13:04.757Z,5.33
2023-04-29T22:16:06.639Z,5.30
2023-04-29T22:19:08.631Z,5.57
2023-04-29T22:22:10.326Z,5.13
2023-04-29T22:25:12.073Z,5.83
2023-04-29T22:28:13.863Z,6.40
2023-04-29T22:31:15.512Z,6.13
2023-04-29T22:34:17.158Z,6.00
2023-04-29T22:37:18.843Z,5.63
2023-04-29T22:40:20.572Z,6.23
2023-04-29T22:43:22.484Z,8.03
2023-04-29T22:46:25.134Z,6.77
2023-04-29T22:49:27.190Z,7.27
2023-04-29T22:52:28.851Z,6.73
2023-04-29T22:55:30.522Z,7.20
2023-04-29T22:58:33.741Z,7.07
2023-04-29T23:01:36.170Z,6.03
2023-04-29T23:05:15.093Z,7.57
2023-04-29T23:08:16.782Z,7.23
2023-04-29T23:11:18.450Z,6.63
2023-04-29T23:14:22.954Z,6.40
2023-04-29T23:17:24.695Z,6.70
2023-04-29T23:20:26.369Z,6.23
2023-04-29T23:23:28.066Z,6.70
2023-04-29T23:26:29.814Z,7.00
2023-04-29T23:29:33.952Z,6.70
2023-04-29T23:32:35.670Z,6.07
2023-04-29T23:35:37.334Z,7.30
2023-04-29T23:38:39.025Z,6.47
2023-04-29T23:41:41.163Z,6.90
2023-04-29T23:44:42.904Z,5.90
2023-04-29T23:47:44.597Z,6.40
2023-04-29T23:50:47.234Z,6.80
2023-04-29T23:53:48.961Z,6.77
2023-04-29T23:56:50.616Z,6.10
2023-04-29T23:59:52.961Z,7.00
